sensor_id;sensor_type;location;lat;lon;timestamp;P1;durP1;ratioP1;P2;durP2;ratioP2
17949;SDS011;9100;48.700;9.316;2022-07-06T00:00:18;3.3;;;3.1;;
17949;SDS011;9100;48.700;9.316;2022-07-06T00:01:18;3.3;;;3.1;;
17949;SDS011;9100;48.700;9.316;2022-07-06T00:02:18;3.3;;;3.1;;
17949;SDS011;9100;48.700;9.316;2022-07-06T00:03:18;3.3;;;3.1;;
17949;SDS011;9100;48.700;9.316;2022-07-06T00:03:41;2.8;;;2.6;;
17949;SDS011;9100;48.700;9.316;2022-07-06T00:04:18;2.8;;;2.6;;
17949;SDS011;9100;48.700;9.316;2022-07-06T00:05:18;2.8;;;2.6;;
17949;SDS011;9100;48.700;9.316;2022-07-06T00:06:18;2.8;;;2.6;;
17949;SDS011;9100;48.700;9.316;2022-07-06T00:07:18;2.8;;;2.6;;
17949;SDS011;9100;48.700;9.316;2022-07-06T00:08:18;2.8;;;2.6;;
17949;SDS011;9100;48.700;9.316;2022-07-06T00:08:41;2.8;;;2.6;;
17949;SDS011;9100;48.700;9.316;2022-07-06T00:09:18;2.8;;;2.6;;
17949;SDS011;9100;48.700;9.316;2022-07-06T00:10:18;2.8;;;2.6;;
17949;SDS011;9100;48.700;9.316;2022-07-06T00:11:18;2.8;;;2.6;;
17949;SDS011;9100;48.700;9.316;2022-07-06T00:12:18;2.8;;;2.6;;
17949;SDS011;9100;48.700;9.316;2022-07-06T00:13:18;2.8;;;2.6;;
17949;SDS011;9100;48.700;9.316;2022-07-06T00:13:41;19.7;;;2.6;;
17949;SDS011;9100;48.700;9.316;2022-07-06T00:14:18;19.7;;;2.6;;
17949;SDS011;9100;48.700;9.316;2022-07-06T00:15:18;19.7;;;2.6;;
17949;SDS011;9100;48.700;9.316;2022-07-06T00:16:18;19.7;;;2.6;;
17949;SDS011;9100;48.700;9.316;2022-07-06T00:17:18;19.7;;;2.6;;
17949;SDS011;9100;48.700;9.316;2022-07-06T00:18:18;19.7;;;2.6;;
17949;SDS011;9100;48.700;9.316;2022-07-06T00:18:41;3.8;;;3.1;;
17949;SDS011;9100;48.700;9.316;2022-07-06T00:19:18;3.8;;;3.1;;
17949;SDS011;9100;48.700;9.316;2022-07-06T00:20:18;3.8;;;3.1;;
17949;SDS011;9100;48.700;9.316;2022-07-06T00:21:18;3.8;;;3.1;;
17949;SDS011;9100;48.700;9.316;2022-07-06T00:22:18;3.8;;;3.1;;
17949;SDS011;9100;48.700;9.316;2022-07-06T00:23:18;3.8;;;3.1;;
17949;SDS011;9100;48.700;9.316;2022-07-06T00:23:41;3.9;;;2.8;;
17949;SDS011;9100;48.700;9.316;2022-07-06T00:24:18;3.9;;;2.8;;
17949;SDS011;9100;48.700;9.316;2022-07-06T00:25:18;3.9;;;2.8;;
17949;SDS011;9100;48.700;9.316;2022-07-06T00:26:18;3.9;;;2.8;;
17949;SDS011;9100;48.700;9.316;2022-07-06T00:27:18;3.9;;;2.8;;
17949;SDS011;9100;48.700;9.316;2022-07-06T00:28:18;3.9;;;2.8;;
17949;SDS011;9100;48.700;9.316;2022-07-06T00:28:41;3.5;;;2.6;;
17949;SDS011;9100;48.700;9.316;2022-07-06T00:29:18;3.5;;;2.6;;
17949;SDS011;9100;48.700;9.316;2022-07-06T00:30:18;3.5;;;2.6;;
17949;SDS011;9100;48.700;9.316;2022-07-06T00:31:18;3.5;;;2.6;;
17949;SDS011;9100;48.700;9.316;2022-07-06T00:32:18;3.5;;;2.6;;
17949;SDS011;9100;48.700;9.316;2022-07-06T00:33:18;3.5;;;2.6;;
17949;SDS011;9100;48.700;9.316;2022-07-06T00:33:41;3.9;;;2.8;;
17949;SDS011;9100;48.700;9.316;2022-07-06T00:34:18;3.9;;;2.8;;
17949;SDS011;9100;48.700;9.316;2022-07-06T00:35:18;3.9;;;2.8;;
17949;SDS011;9100;48.700;9.316;2022-07-06T00:36:18;3.9;;;2.8;;
17949;SDS011;9100;48.700;9.316;2022-07-06T00:37:18;3.9;;;2.8;;
17949;SDS011;9100;48.700;9.316;2022-07-06T00:38:18;3.9;;;2.8;;
17949;SDS011;9100;48.700;9.316;2022-07-06T00:38:41;3.9;;;2.9;;
17949;SDS011;9100;48.700;9.316;2022-07-06T00:39:18;3.9;;;2.9;;
17949;SDS011;9100;48.700;9.316;2022-07-06T00:40:18;3.9;;;2.9;;
17949;SDS011;9100;48.700;9.316;2022-07-06T00:41:18;3.9;;;2.9;;
17949;SDS011;9100;48.700;9.316;2022-07-06T00:42:18;3.9;;;2.9;;
17949;SDS011;9100;48.700;9.316;2022-07-06T00:43:18;3.9;;;2.9;;
17949;SDS011;9100;48.700;9.316;2022-07-06T00:43:46;5.7;;;3.1;;
17949;SDS011;9100;48.700;9.316;2022-07-06T00:44:18;5.7;;;3.1;;
17949;SDS011;9100;48.700;9.316;2022-07-06T00:45:18;5.7;;;3.1;;
17949;SDS011;9100;48.700;9.316;2022-07-06T00:46:18;5.7;;;3.1;;
17949;SDS011;9100;48.700;9.316;2022-07-06T00:47:18;5.7;;;3.1;;
17949;SDS011;9100;48.700;9.316;2022-07-06T00:48:18;5.7;;;3.1;;
17949;SDS011;9100;48.700;9.316;2022-07-06T00:48:41;2.2;;;2;;
17949;SDS011;9100;48.700;9.316;2022-07-06T00:49:18;2.2;;;2;;
17949;SDS011;9100;48.700;9.316;2022-07-06T00:50:18;2.2;;;2;;
17949;SDS011;9100;48.700;9.316;2022-07-06T00:51:18;2.2;;;2;;
17949;SDS011;9100;48.700;9.316;2022-07-06T00:52:18;2.2;;;2;;
17949;SDS011;9100;48.700;9.316;2022-07-06T00:53:18;2.2;;;2;;
17949;SDS011;9100;48.700;9.316;2022-07-06T00:53:41;2.3;;;2.2;;
17949;SDS011;9100;48.700;9.316;2022-07-06T00:54:18;2.3;;;2.2;;
17949;SDS011;9100;48.700;9.316;2022-07-06T00:55:19;2.3;;;2.2;;
17949;SDS011;9100;48.700;9.316;2022-07-06T00:56:18;2.3;;;2.2;;
17949;SDS011;9100;48.700;9.316;2022-07-06T00:57:18;2.3;;;2.2;;
17949;SDS011;9100;48.700;9.316;2022-07-06T00:58:18;2.3;;;2.2;;
17949;SDS011;9100;48.700;9.316;2022-07-06T00:58:41;2.3;;;2.1;;
17949;SDS011;9100;48.700;9.316;2022-07-06T00:59:18;2.3;;;2.1;;
17949;SDS011;9100;48.700;9.316;2022-07-06T01:00:19;2.3;;;2.1;;
17949;SDS011;9100;48.700;9.316;2022-07-06T01:01:18;2.3;;;2.1;;
17949;SDS011;9100;48.700;9.316;2022-07-06T01:02:18;2.3;;;2.1;;
17949;SDS011;9100;48.700;9.316;2022-07-06T01:03:18;2.3;;;2.1;;
17949;SDS011;9100;48.700;9.316;2022-07-06T01:03:41;2.7;;;2;;
17949;SDS011;9100;48.700;9.316;2022-07-06T01:04:18;2.7;;;2;;
17949;SDS011;9100;48.700;9.316;2022-07-06T01:05:18;2.7;;;2;;
17949;SDS011;9100;48.700;9.316;2022-07-06T01:06:19;2.7;;;2;;
17949;SDS011;9100;48.700;9.316;2022-07-06T01:07:18;2.7;;;2;;
17949;SDS011;9100;48.700;9.316;2022-07-06T01:08:18;2.7;;;2;;
17949;SDS011;9100;48.700;9.316;2022-07-06T01:08:41;2.6;;;2.4;;
17949;SDS011;9100;48.700;9.316;2022-07-06T01:09:18;2.6;;;2.4;;
17949;SDS011;9100;48.700;9.316;2022-07-06T01:10:19;2.6;;;2.4;;
17949;SDS011;9100;48.700;9.316;2022-07-06T01:11:18;2.6;;;2.4;;
17949;SDS011;9100;48.700;9.316;2022-07-06T01:12:18;2.6;;;2.4;;
17949;SDS011;9100;48.700;9.316;2022-07-06T01:13:18;2.6;;;2.4;;
17949;SDS011;9100;48.700;9.316;2022-07-06T01:13:41;3.9;;;2.5;;
17949;SDS011;9100;48.700;9.316;2022-07-06T01:14:18;3.9;;;2.5;;
17949;SDS011;9100;48.700;9.316;2022-07-06T01:15:19;3.9;;;2.5;;
17949;SDS011;9100;48.700;9.316;2022-07-06T01:16:18;3.9;;;2.5;;
17949;SDS011;9100;48.700;9.316;2022-07-06T01:17:18;3.9;;;2.5;;
17949;SDS011;9100;48.700;9.316;2022-07-06T01:18:18;3.9;;;2.5;;
17949;SDS011;9100;48.700;9.316;2022-07-06T01:18:41;4.1;;;2.5;;
17949;SDS011;9100;48.700;9.316;2022-07-06T01:19:18;4.1;;;2.5;;
17949;SDS011;9100;48.700;9.316;2022-07-06T01:20:19;4.1;;;2.5;;
17949;SDS011;9100;48.700;9.316;2022-07-06T01:21:18;4.1;;;2.5;;
17949;SDS011;9100;48.700;9.316;2022-07-06T01:22:18;4.1;;;2.5;;
17949;SDS011;9100;48.700;9.316;2022-07-06T01:23:18;4.1;;;2.5;;
17949;SDS011;9100;48.700;9.316;2022-07-06T01:23:41;4.1;;;2.6;;
17949;SDS011;9100;48.700;9.316;2022-07-06T01:24:18;4.1;;;2.6;;
17949;SDS011;9100;48.700;9.316;2022-07-06T01:25:18;4.1;;;2.6;;
17949;SDS011;9100;48.700;9.316;2022-07-06T01:26:19;4.1;;;2.6;;
17949;SDS011;9100;48.700;9.316;2022-07-06T01:27:18;4.1;;;2.6;;
17949;SDS011;9100;48.700;9.316;2022-07-06T01:28:18;4.1;;;2.6;;
17949;SDS011;9100;48.700;9.316;2022-07-06T01:28:41;2.8;;;2.6;;
17949;SDS011;9100;48.700;9.316;2022-07-06T01:29:18;2.8;;;2.6;;
17949;SDS011;9100;48.700;9.316;2022-07-06T01:30:18;2.8;;;2.6;;
17949;SDS011;9100;48.700;9.316;2022-07-06T01:31:19;2.8;;;2.6;;
17949;SDS011;9100;48.700;9.316;2022-07-06T01:32:18;2.8;;;2.6;;
17949;SDS011;9100;48.700;9.316;2022-07-06T01:33:18;2.8;;;2.6;;
17949;SDS011;9100;48.700;9.316;2022-07-06T01:33:41;2.2;;;2.1;;
17949;SDS011;9100;48.700;9.316;2022-07-06T01:34:18;2.2;;;2.1;;
17949;SDS011;9100;48.700;9.316;2022-07-06T01:35:18;2.2;;;2.1;;
17949;SDS011;9100;48.700;9.316;2022-07-06T01:36:18;2.2;;;2.1;;
17949;SDS011;9100;48.700;9.316;2022-07-06T01:37:18;2.2;;;2.1;;
17949;SDS011;9100;48.700;9.316;2022-07-06T01:38:18;2.2;;;2.1;;
17949;SDS011;9100;48.700;9.316;2022-07-06T01:38:49;4.2;;;2.3;;
17949;SDS011;9100;48.700;9.316;2022-07-06T01:39:18;4.2;;;2.3;;
17949;SDS011;9100;48.700;9.316;2022-07-06T01:40:18;4.2;;;2.3;;
17949;SDS011;9100;48.700;9.316;2022-07-06T01:41:18;4.2;;;2.3;;
17949;SDS011;9100;48.700;9.316;2022-07-06T01:42:18;4.2;;;2.3;;
17949;SDS011;9100;48.700;9.316;2022-07-06T01:43:18;4.2;;;2.3;;
17949;SDS011;9100;48.700;9.316;2022-07-06T01:43:41;6.7;;;2.6;;
17949;SDS011;9100;48.700;9.316;2022-07-06T01:44:18;6.7;;;2.6;;
17949;SDS011;9100;48.700;9.316;2022-07-06T01:45:18;6.7;;;2.6;;
17949;SDS011;9100;48.700;9.316;2022-07-06T01:46:18;6.7;;;2.6;;
17949;SDS011;9100;48.700;9.316;2022-07-06T01:47:18;6.7;;;2.6;;
17949;SDS011;9100;48.700;9.316;2022-07-06T01:48:18;6.7;;;2.6;;
17949;SDS011;9100;48.700;9.316;2022-07-06T01:48:41;2.8;;;2.5;;
17949;SDS011;9100;48.700;9.316;2022-07-06T01:49:18;2.8;;;2.5;;
17949;SDS011;9100;48.700;9.316;2022-07-06T01:50:18;2.8;;;2.5;;
17949;SDS011;9100;48.700;9.316;2022-07-06T01:51:18;2.8;;;2.5;;
17949;SDS011;9100;48.700;9.316;2022-07-06T01:52:18;2.8;;;2.5;;
17949;SDS011;9100;48.700;9.316;2022-07-06T01:53:18;2.8;;;2.5;;
17949;SDS011;9100;48.700;9.316;2022-07-06T01:53:41;4;;;2.4;;
17949;SDS011;9100;48.700;9.316;2022-07-06T01:54:18;4;;;2.4;;
17949;SDS011;9100;48.700;9.316;2022-07-06T01:55:18;4;;;2.4;;
17949;SDS011;9100;48.700;9.316;2022-07-06T01:56:18;4;;;2.4;;
17949;SDS011;9100;48.700;9.316;2022-07-06T01:57:18;4;;;2.4;;
17949;SDS011;9100;48.700;9.316;2022-07-06T01:58:19;4;;;2.4;;
17949;SDS011;9100;48.700;9.316;2022-07-06T01:58:41;2.7;;;2.5;;
17949;SDS011;9100;48.700;9.316;2022-07-06T01:59:18;2.7;;;2.5;;
17949;SDS011;9100;48.700;9.316;2022-07-06T02:00:18;2.7;;;2.5;;
17949;SDS011;9100;48.700;9.316;2022-07-06T02:01:19;2.7;;;2.5;;
17949;SDS011;9100;48.700;9.316;2022-07-06T02:02:18;2.7;;;2.5;;
17949;SDS011;9100;48.700;9.316;2022-07-06T02:03:18;2.7;;;2.5;;
17949;SDS011;9100;48.700;9.316;2022-07-06T02:03:41;3.5;;;2.4;;
17949;SDS011;9100;48.700;9.316;2022-07-06T02:04:18;3.5;;;2.4;;
17949;SDS011;9100;48.700;9.316;2022-07-06T02:05:18;3.5;;;2.4;;
17949;SDS011;9100;48.700;9.316;2022-07-06T02:06:18;3.5;;;2.4;;
17949;SDS011;9100;48.700;9.316;2022-07-06T02:07:18;3.5;;;2.4;;
17949;SDS011;9100;48.700;9.316;2022-07-06T02:08:18;3.5;;;2.4;;
17949;SDS011;9100;48.700;9.316;2022-07-06T02:08:41;2.3;;;2.1;;
17949;SDS011;9100;48.700;9.316;2022-07-06T02:09:18;2.3;;;2.1;;
17949;SDS011;9100;48.700;9.316;2022-07-06T02:10:18;2.3;;;2.1;;
17949;SDS011;9100;48.700;9.316;2022-07-06T02:11:18;2.3;;;2.1;;
17949;SDS011;9100;48.700;9.316;2022-07-06T02:12:18;2.3;;;2.1;;
17949;SDS011;9100;48.700;9.316;2022-07-06T02:13:18;2.3;;;2.1;;
17949;SDS011;9100;48.700;9.316;2022-07-06T02:13:41;3.5;;;2.3;;
17949;SDS011;9100;48.700;9.316;2022-07-06T02:14:18;3.5;;;2.3;;
17949;SDS011;9100;48.700;9.316;2022-07-06T02:15:18;3.5;;;2.3;;
17949;SDS011;9100;48.700;9.316;2022-07-06T02:16:18;3.5;;;2.3;;
17949;SDS011;9100;48.700;9.316;2022-07-06T02:17:18;3.5;;;2.3;;
17949;SDS011;9100;48.700;9.316;2022-07-06T02:18:18;3.5;;;2.3;;
17949;SDS011;9100;48.700;9.316;2022-07-06T02:18:41;3.3;;;2.3;;
17949;SDS011;9100;48.700;9.316;2022-07-06T02:19:18;3.3;;;2.3;;
17949;SDS011;9100;48.700;9.316;2022-07-06T02:20:18;3.3;;;2.3;;
17949;SDS011;9100;48.700;9.316;2022-07-06T02:21:18;3.3;;;2.3;;
17949;SDS011;9100;48.700;9.316;2022-07-06T02:22:18;3.3;;;2.3;;
17949;SDS011;9100;48.700;9.316;2022-07-06T02:23:18;3.3;;;2.3;;
17949;SDS011;9100;48.700;9.316;2022-07-06T02:23:41;2.6;;;2.4;;
17949;SDS011;9100;48.700;9.316;2022-07-06T02:24:18;2.6;;;2.4;;
17949;SDS011;9100;48.700;9.316;2022-07-06T02:25:18;2.6;;;2.4;;
17949;SDS011;9100;48.700;9.316;2022-07-06T02:26:18;2.6;;;2.4;;
17949;SDS011;9100;48.700;9.316;2022-07-06T02:27:18;2.6;;;2.4;;
17949;SDS011;9100;48.700;9.316;2022-07-06T02:28:18;2.6;;;2.4;;
17949;SDS011;9100;48.700;9.316;2022-07-06T02:28:41;4.7;;;2.8;;
17949;SDS011;9100;48.700;9.316;2022-07-06T02:29:18;4.7;;;2.8;;
17949;SDS011;9100;48.700;9.316;2022-07-06T02:30:18;4.7;;;2.8;;
17949;SDS011;9100;48.700;9.316;2022-07-06T02:31:18;4.7;;;2.8;;
17949;SDS011;9100;48.700;9.316;2022-07-06T02:32:18;4.7;;;2.8;;
17949;SDS011;9100;48.700;9.316;2022-07-06T02:33:18;4.7;;;2.8;;
17949;SDS011;9100;48.700;9.316;2022-07-06T02:33:41;4.6;;;2.5;;
17949;SDS011;9100;48.700;9.316;2022-07-06T02:34:18;4.6;;;2.5;;
17949;SDS011;9100;48.700;9.316;2022-07-06T02:35:18;4.6;;;2.5;;
17949;SDS011;9100;48.700;9.316;2022-07-06T02:36:18;4.6;;;2.5;;
17949;SDS011;9100;48.700;9.316;2022-07-06T02:37:18;4.6;;;2.5;;
17949;SDS011;9100;48.700;9.316;2022-07-06T02:38:18;4.6;;;2.5;;
17949;SDS011;9100;48.700;9.316;2022-07-06T02:38:41;4;;;2.8;;
17949;SDS011;9100;48.700;9.316;2022-07-06T02:39:18;4;;;2.8;;
17949;SDS011;9100;48.700;9.316;2022-07-06T02:40:18;4;;;2.8;;
17949;SDS011;9100;48.700;9.316;2022-07-06T02:41:18;4;;;2.8;;
17949;SDS011;9100;48.700;9.316;2022-07-06T02:42:18;4;;;2.8;;
17949;SDS011;9100;48.700;9.316;2022-07-06T02:43:18;4;;;2.8;;
17949;SDS011;9100;48.700;9.316;2022-07-06T02:43:41;3.3;;;2.6;;
17949;SDS011;9100;48.700;9.316;2022-07-06T02:44:18;3.3;;;2.6;;
17949;SDS011;9100;48.700;9.316;2022-07-06T02:45:18;3.3;;;2.6;;
17949;SDS011;9100;48.700;9.316;2022-07-06T02:46:18;3.3;;;2.6;;
17949;SDS011;9100;48.700;9.316;2022-07-06T02:47:18;3.3;;;2.6;;
17949;SDS011;9100;48.700;9.316;2022-07-06T02:48:18;3.3;;;2.6;;
17949;SDS011;9100;48.700;9.316;2022-07-06T02:48:41;3.2;;;2.9;;
17949;SDS011;9100;48.700;9.316;2022-07-06T02:49:18;3.2;;;2.9;;
17949;SDS011;9100;48.700;9.316;2022-07-06T02:50:18;3.2;;;2.9;;
17949;SDS011;9100;48.700;9.316;2022-07-06T02:51:18;3.2;;;2.9;;
17949;SDS011;9100;48.700;9.316;2022-07-06T02:52:18;3.2;;;2.9;;
17949;SDS011;9100;48.700;9.316;2022-07-06T02:53:18;3.2;;;2.9;;
17949;SDS011;9100;48.700;9.316;2022-07-06T02:53:41;2.8;;;2.3;;
17949;SDS011;9100;48.700;9.316;2022-07-06T02:54:18;2.8;;;2.3;;
17949;SDS011;9100;48.700;9.316;2022-07-06T02:55:18;2.8;;;2.3;;
17949;SDS011;9100;48.700;9.316;2022-07-06T02:56:18;2.8;;;2.3;;
17949;SDS011;9100;48.700;9.316;2022-07-06T02:57:18;2.8;;;2.3;;
17949;SDS011;9100;48.700;9.316;2022-07-06T02:58:18;2.8;;;2.3;;
17949;SDS011;9100;48.700;9.316;2022-07-06T02:58:41;2.7;;;2.6;;
17949;SDS011;9100;48.700;9.316;2022-07-06T02:59:18;2.7;;;2.6;;
17949;SDS011;9100;48.700;9.316;2022-07-06T03:00:18;2.7;;;2.6;;
17949;SDS011;9100;48.700;9.316;2022-07-06T03:01:18;2.7;;;2.6;;
17949;SDS011;9100;48.700;9.316;2022-07-06T03:02:18;2.7;;;2.6;;
17949;SDS011;9100;48.700;9.316;2022-07-06T03:03:18;2.7;;;2.6;;
17949;SDS011;9100;48.700;9.316;2022-07-06T03:03:41;7.1;;;3.5;;
17949;SDS011;9100;48.700;9.316;2022-07-06T03:04:18;7.1;;;3.5;;
17949;SDS011;9100;48.700;9.316;2022-07-06T03:05:18;7.1;;;3.5;;
17949;SDS011;9100;48.700;9.316;2022-07-06T03:06:18;7.1;;;3.5;;
17949;SDS011;9100;48.700;9.316;2022-07-06T03:07:18;7.1;;;3.5;;
17949;SDS011;9100;48.700;9.316;2022-07-06T03:08:18;7.1;;;3.5;;
17949;SDS011;9100;48.700;9.316;2022-07-06T03:08:41;4.5;;;2.9;;
17949;SDS011;9100;48.700;9.316;2022-07-06T03:09:18;4.5;;;2.9;;
17949;SDS011;9100;48.700;9.316;2022-07-06T03:10:18;4.5;;;2.9;;
17949;SDS011;9100;48.700;9.316;2022-07-06T03:11:18;4.5;;;2.9;;
17949;SDS011;9100;48.700;9.316;2022-07-06T03:12:18;4.5;;;2.9;;
17949;SDS011;9100;48.700;9.316;2022-07-06T03:13:18;4.5;;;2.9;;
17949;SDS011;9100;48.700;9.316;2022-07-06T03:13:41;5.3;;;2.6;;
17949;SDS011;9100;48.700;9.316;2022-07-06T03:14:18;5.3;;;2.6;;
17949;SDS011;9100;48.700;9.316;2022-07-06T03:15:18;5.3;;;2.6;;
17949;SDS011;9100;48.700;9.316;2022-07-06T03:16:18;5.3;;;2.6;;
17949;SDS011;9100;48.700;9.316;2022-07-06T03:17:18;5.3;;;2.6;;
17949;SDS011;9100;48.700;9.316;2022-07-06T03:18:18;5.3;;;2.6;;
17949;SDS011;9100;48.700;9.316;2022-07-06T03:18:41;3.2;;;2.7;;
17949;SDS011;9100;48.700;9.316;2022-07-06T03:19:18;3.2;;;2.7;;
17949;SDS011;9100;48.700;9.316;2022-07-06T03:20:18;3.2;;;2.7;;
17949;SDS011;9100;48.700;9.316;2022-07-06T03:21:18;3.2;;;2.7;;
17949;SDS011;9100;48.700;9.316;2022-07-06T03:22:18;3.2;;;2.7;;
17949;SDS011;9100;48.700;9.316;2022-07-06T03:23:18;3.2;;;2.7;;
17949;SDS011;9100;48.700;9.316;2022-07-06T03:23:41;8.1;;;3.2;;
17949;SDS011;9100;48.700;9.316;2022-07-06T03:24:18;8.1;;;3.2;;
17949;SDS011;9100;48.700;9.316;2022-07-06T03:25:18;8.1;;;3.2;;
17949;SDS011;9100;48.700;9.316;2022-07-06T03:26:18;8.1;;;3.2;;
17949;SDS011;9100;48.700;9.316;2022-07-06T03:27:18;8.1;;;3.2;;
17949;SDS011;9100;48.700;9.316;2022-07-06T03:28:18;8.1;;;3.2;;
17949;SDS011;9100;48.700;9.316;2022-07-06T03:28:41;4.4;;;2.7;;
17949;SDS011;9100;48.700;9.316;2022-07-06T03:29:18;4.4;;;2.7;;
17949;SDS011;9100;48.700;9.316;2022-07-06T03:30:18;4.4;;;2.7;;
17949;SDS011;9100;48.700;9.316;2022-07-06T03:31:18;4.4;;;2.7;;
17949;SDS011;9100;48.700;9.316;2022-07-06T03:32:18;4.4;;;2.7;;
17949;SDS011;9100;48.700;9.316;2022-07-06T03:33:18;4.4;;;2.7;;
17949;SDS011;9100;48.700;9.316;2022-07-06T03:33:41;2.8;;;2.6;;
17949;SDS011;9100;48.700;9.316;2022-07-06T03:34:18;2.8;;;2.6;;
17949;SDS011;9100;48.700;9.316;2022-07-06T03:35:18;2.8;;;2.6;;
17949;SDS011;9100;48.700;9.316;2022-07-06T03:36:18;2.8;;;2.6;;
17949;SDS011;9100;48.700;9.316;2022-07-06T03:37:18;2.8;;;2.6;;
17949;SDS011;9100;48.700;9.316;2022-07-06T03:38:18;2.8;;;2.6;;
17949;SDS011;9100;48.700;9.316;2022-07-06T03:38:41;3.3;;;3;;
17949;SDS011;9100;48.700;9.316;2022-07-06T03:39:18;3.3;;;3;;
17949;SDS011;9100;48.700;9.316;2022-07-06T03:40:18;3.3;;;3;;
17949;SDS011;9100;48.700;9.316;2022-07-06T03:41:18;3.3;;;3;;
17949;SDS011;9100;48.700;9.316;2022-07-06T03:42:18;3.3;;;3;;
17949;SDS011;9100;48.700;9.316;2022-07-06T03:43:18;3.3;;;3;;
17949;SDS011;9100;48.700;9.316;2022-07-06T03:43:41;4.1;;;3.4;;
17949;SDS011;9100;48.700;9.316;2022-07-06T03:44:18;4.1;;;3.4;;
17949;SDS011;9100;48.700;9.316;2022-07-06T03:45:18;4.1;;;3.4;;
17949;SDS011;9100;48.700;9.316;2022-07-06T03:46:18;4.1;;;3.4;;
17949;SDS011;9100;48.700;9.316;2022-07-06T03:47:18;4.1;;;3.4;;
17949;SDS011;9100;48.700;9.316;2022-07-06T03:48:18;4.1;;;3.4;;
17949;SDS011;9100;48.700;9.316;2022-07-06T03:48:41;8.1;;;3.1;;
17949;SDS011;9100;48.700;9.316;2022-07-06T03:49:18;8.1;;;3.1;;
17949;SDS011;9100;48.700;9.316;2022-07-06T03:50:18;8.1;;;3.1;;
17949;SDS011;9100;48.700;9.316;2022-07-06T03:51:18;8.1;;;3.1;;
17949;SDS011;9100;48.700;9.316;2022-07-06T03:52:18;8.1;;;3.1;;
17949;SDS011;9100;48.700;9.316;2022-07-06T03:53:18;8.1;;;3.1;;
17949;SDS011;9100;48.700;9.316;2022-07-06T03:53:41;2.6;;;2.5;;
17949;SDS011;9100;48.700;9.316;2022-07-06T03:54:18;2.6;;;2.5;;
17949;SDS011;9100;48.700;9.316;2022-07-06T03:55:18;2.6;;;2.5;;
17949;SDS011;9100;48.700;9.316;2022-07-06T03:56:18;2.6;;;2.5;;
17949;SDS011;9100;48.700;9.316;2022-07-06T03:57:18;2.6;;;2.5;;
17949;SDS011;9100;48.700;9.316;2022-07-06T03:58:18;2.6;;;2.5;;
17949;SDS011;9100;48.700;9.316;2022-07-06T03:58:41;9.3;;;3;;
17949;SDS011;9100;48.700;9.316;2022-07-06T03:59:18;9.3;;;3;;
17949;SDS011;9100;48.700;9.316;2022-07-06T04:00:18;9.3;;;3;;
17949;SDS011;9100;48.700;9.316;2022-07-06T04:01:18;9.3;;;3;;
17949;SDS011;9100;48.700;9.316;2022-07-06T04:02:18;9.3;;;3;;
17949;SDS011;9100;48.700;9.316;2022-07-06T04:03:18;9.3;;;3;;
17949;SDS011;9100;48.700;9.316;2022-07-06T04:03:41;4;;;3.1;;
17949;SDS011;9100;48.700;9.316;2022-07-06T04:04:18;4;;;3.1;;
17949;SDS011;9100;48.700;9.316;2022-07-06T04:05:18;4;;;3.1;;
17949;SDS011;9100;48.700;9.316;2022-07-06T04:06:19;4;;;3.1;;
17949;SDS011;9100;48.700;9.316;2022-07-06T04:07:18;4;;;3.1;;
17949;SDS011;9100;48.700;9.316;2022-07-06T04:08:18;4;;;3.1;;
17949;SDS011;9100;48.700;9.316;2022-07-06T04:08:41;3.1;;;2.4;;
17949;SDS011;9100;48.700;9.316;2022-07-06T04:09:18;3.1;;;2.4;;
17949;SDS011;9100;48.700;9.316;2022-07-06T04:10:18;3.1;;;2.4;;
17949;SDS011;9100;48.700;9.316;2022-07-06T04:11:18;3.1;;;2.4;;
17949;SDS011;9100;48.700;9.316;2022-07-06T04:12:18;3.1;;;2.4;;
17949;SDS011;9100;48.700;9.316;2022-07-06T04:13:18;3.1;;;2.4;;
17949;SDS011;9100;48.700;9.316;2022-07-06T04:13:41;4.1;;;2.7;;
17949;SDS011;9100;48.700;9.316;2022-07-06T04:14:18;4.1;;;2.7;;
17949;SDS011;9100;48.700;9.316;2022-07-06T04:15:18;4.1;;;2.7;;
17949;SDS011;9100;48.700;9.316;2022-07-06T04:16:18;4.1;;;2.7;;
17949;SDS011;9100;48.700;9.316;2022-07-06T04:17:18;4.1;;;2.7;;
17949;SDS011;9100;48.700;9.316;2022-07-06T04:18:18;4.1;;;2.7;;
17949;SDS011;9100;48.700;9.316;2022-07-06T04:18:41;11;;;2.9;;
17949;SDS011;9100;48.700;9.316;2022-07-06T04:19:18;11;;;2.9;;
17949;SDS011;9100;48.700;9.316;2022-07-06T04:20:18;11;;;2.9;;
17949;SDS011;9100;48.700;9.316;2022-07-06T04:21:19;11;;;2.9;;
17949;SDS011;9100;48.700;9.316;2022-07-06T04:22:18;11;;;2.9;;
17949;SDS011;9100;48.700;9.316;2022-07-06T04:23:18;11;;;2.9;;
17949;SDS011;9100;48.700;9.316;2022-07-06T04:23:41;4.3;;;2.9;;
17949;SDS011;9100;48.700;9.316;2022-07-06T04:24:18;4.3;;;2.9;;
17949;SDS011;9100;48.700;9.316;2022-07-06T04:25:18;4.3;;;2.9;;
17949;SDS011;9100;48.700;9.316;2022-07-06T04:26:18;4.3;;;2.9;;
17949;SDS011;9100;48.700;9.316;2022-07-06T04:27:18;4.3;;;2.9;;
17949;SDS011;9100;48.700;9.316;2022-07-06T04:28:18;4.3;;;2.9;;
17949;SDS011;9100;48.700;9.316;2022-07-06T04:28:41;4.5;;;2.9;;
17949;SDS011;9100;48.700;9.316;2022-07-06T04:29:18;4.5;;;2.9;;
17949;SDS011;9100;48.700;9.316;2022-07-06T04:30:18;4.5;;;2.9;;
17949;SDS011;9100;48.700;9.316;2022-07-06T04:31:18;4.5;;;2.9;;
17949;SDS011;9100;48.700;9.316;2022-07-06T04:32:18;4.5;;;2.9;;
17949;SDS011;9100;48.700;9.316;2022-07-06T04:33:18;4.5;;;2.9;;
17949;SDS011;9100;48.700;9.316;2022-07-06T04:33:41;3.2;;;2.9;;
17949;SDS011;9100;48.700;9.316;2022-07-06T04:34:18;3.2;;;2.9;;
17949;SDS011;9100;48.700;9.316;2022-07-06T04:35:18;3.2;;;2.9;;
17949;SDS011;9100;48.700;9.316;2022-07-06T04:36:18;3.2;;;2.9;;
17949;SDS011;9100;48.700;9.316;2022-07-06T04:37:18;3.2;;;2.9;;
17949;SDS011;9100;48.700;9.316;2022-07-06T04:38:18;3.2;;;2.9;;
17949;SDS011;9100;48.700;9.316;2022-07-06T04:38:41;3.4;;;3.1;;
17949;SDS011;9100;48.700;9.316;2022-07-06T04:39:18;3.4;;;3.1;;
17949;SDS011;9100;48.700;9.316;2022-07-06T04:40:18;3.4;;;3.1;;
17949;SDS011;9100;48.700;9.316;2022-07-06T04:41:18;3.4;;;3.1;;
17949;SDS011;9100;48.700;9.316;2022-07-06T04:42:18;3.4;;;3.1;;
17949;SDS011;9100;48.700;9.316;2022-07-06T04:43:18;3.4;;;3.1;;
17949;SDS011;9100;48.700;9.316;2022-07-06T04:43:41;6.9;;;2.5;;
17949;SDS011;9100;48.700;9.316;2022-07-06T04:44:18;6.9;;;2.5;;
17949;SDS011;9100;48.700;9.316;2022-07-06T04:45:18;6.9;;;2.5;;
17949;SDS011;9100;48.700;9.316;2022-07-06T04:46:18;6.9;;;2.5;;
17949;SDS011;9100;48.700;9.316;2022-07-06T04:47:19;6.9;;;2.5;;
17949;SDS011;9100;48.700;9.316;2022-07-06T04:48:18;6.9;;;2.5;;
17949;SDS011;9100;48.700;9.316;2022-07-06T04:48:41;3.1;;;2.8;;
17949;SDS011;9100;48.700;9.316;2022-07-06T04:49:18;3.1;;;2.8;;
17949;SDS011;9100;48.700;9.316;2022-07-06T04:50:18;3.1;;;2.8;;
17949;SDS011;9100;48.700;9.316;2022-07-06T04:51:18;3.1;;;2.8;;
17949;SDS011;9100;48.700;9.316;2022-07-06T04:52:18;3.1;;;2.8;;
17949;SDS011;9100;48.700;9.316;2022-07-06T04:53:18;3.1;;;2.8;;
17949;SDS011;9100;48.700;9.316;2022-07-06T04:53:41;5.2;;;2.6;;
17949;SDS011;9100;48.700;9.316;2022-07-06T04:54:19;5.2;;;2.6;;
17949;SDS011;9100;48.700;9.316;2022-07-06T04:55:18;5.2;;;2.6;;
17949;SDS011;9100;48.700;9.316;2022-07-06T04:56:18;5.2;;;2.6;;
17949;SDS011;9100;48.700;9.316;2022-07-06T04:57:18;5.2;;;2.6;;
17949;SDS011;9100;48.700;9.316;2022-07-06T04:58:18;5.2;;;2.6;;
17949;SDS011;9100;48.700;9.316;2022-07-06T04:58:41;4.7;;;3.1;;
17949;SDS011;9100;48.700;9.316;2022-07-06T04:59:19;4.7;;;3.1;;
17949;SDS011;9100;48.700;9.316;2022-07-06T05:00:18;4.7;;;3.1;;
17949;SDS011;9100;48.700;9.316;2022-07-06T05:01:18;4.7;;;3.1;;
17949;SDS011;9100;48.700;9.316;2022-07-06T05:02:18;4.7;;;3.1;;
17949;SDS011;9100;48.700;9.316;2022-07-06T05:03:18;4.7;;;3.1;;
17949;SDS011;9100;48.700;9.316;2022-07-06T05:03:41;3.9;;;3.2;;
17949;SDS011;9100;48.700;9.316;2022-07-06T05:04:18;3.9;;;3.2;;
17949;SDS011;9100;48.700;9.316;2022-07-06T05:05:18;3.9;;;3.2;;
17949;SDS011;9100;48.700;9.316;2022-07-06T05:06:18;3.9;;;3.2;;
17949;SDS011;9100;48.700;9.316;2022-07-06T05:07:18;3.9;;;3.2;;
17949;SDS011;9100;48.700;9.316;2022-07-06T05:08:18;3.9;;;3.2;;
17949;SDS011;9100;48.700;9.316;2022-07-06T05:08:41;3.3;;;2.8;;
17949;SDS011;9100;48.700;9.316;2022-07-06T05:09:18;3.3;;;2.8;;
17949;SDS011;9100;48.700;9.316;2022-07-06T05:10:18;3.3;;;2.8;;
17949;SDS011;9100;48.700;9.316;2022-07-06T05:11:19;3.3;;;2.8;;
17949;SDS011;9100;48.700;9.316;2022-07-06T05:12:18;3.3;;;2.8;;
17949;SDS011;9100;48.700;9.316;2022-07-06T05:13:18;3.3;;;2.8;;
17949;SDS011;9100;48.700;9.316;2022-07-06T05:13:41;3.6;;;3;;
17949;SDS011;9100;48.700;9.316;2022-07-06T05:14:18;3.6;;;3;;
17949;SDS011;9100;48.700;9.316;2022-07-06T05:15:18;3.6;;;3;;
17949;SDS011;9100;48.700;9.316;2022-07-06T05:16:18;3.6;;;3;;
17949;SDS011;9100;48.700;9.316;2022-07-06T05:17:18;3.6;;;3;;